Terminal Aerodrome Forecast
Issued by NWS Milwaukee/Sullivan, WI

Home | Current Version | Previous Version | Text Only | Print | Product List | Glossary On
Versions: 1 2 3 4 5 6 7 8 9 10 11 12 13 14 15 16 17 18 19 20 21 22 23 24 25 26 27 28 29 30 31 32 33 34 35 36 37
000
FTUS43 KMKX 200007 AAA
TAFMKE
TAF AMD
KMKE 200007Z 2000/2106 14004KT 1/4SM -RA FG VV001
     FM200300 12004KT 1/2SM -RA FG VV002
     FM201300 07006KT 1/2SM -DZ FG OVC003
     FM201700 08005KT 1SM -DZ BR OVC003=

USA.gov is the U.S. government's official web portal to all federal, state and local government web resources and services.